Time;durP1;ratioP1;P1;durP2;ratioP2;P2;SDS_P1;SDS_P2;PMS_P1;PMS_P2;Temp;Humidity;BMP_temperature;BMP_pressure;BME280_temperature;BME280_humidity;BME280_pressure;Samples;Min_cycle;Max_cycle;Signal;HPM_P1;HPM_P2
2022/05/29 00:01:52;;;;;;;9.50;4.10;;;;;;;6.75;74.02;99037.38;6217602;23;20019;-77
2022/05/29 00:04:19;;;;;;;9.40;4.28;;;;;;;6.67;74.06;99031.38;6218888;23;20023;-77
2022/05/29 00:06:48;;;;;;;6.00;3.83;;;;;;;6.66;74.79;99034.00;6246998;23;20531;-77
2022/05/29 00:09:19;;;;;;;13.80;4.13;;;;;;;6.51;74.98;99014.25;6197615;23;20016;-78
2022/05/29 00:11:46;;;;;;;6.68;4.80;;;;;;;6.68;74.73;99042.59;6218924;23;20103;-77
2022/05/29 00:14:13;;;;;;;9.70;4.28;;;;;;;6.62;74.23;99044.34;6194227;23;20148;-77
2022/05/29 00:16:40;;;;;;;8.63;3.78;;;;;;;6.65;74.55;99048.63;6220379;23;20103;-77
2022/05/29 00:19:06;;;;;;;7.03;3.78;;;;;;;6.56;75.36;99043.50;6220768;23;20020;-78
2022/05/29 00:21:34;;;;;;;12.65;3.60;;;;;;;6.66;75.03;99052.94;6222851;23;20016;-75
2022/05/29 00:24:01;;;;;;;5.03;3.50;;;;;;;6.52;74.74;99031.47;6171916;23;20050;-77
2022/05/29 00:26:27;;;;;;;10.10;3.65;;;;;;;6.63;75.30;99051.22;6221669;23;20043;-77
2022/05/29 00:28:54;;;;;;;6.47;3.53;;;;;;;6.60;75.37;99056.41;6223023;23;20020;-76
2022/05/29 00:31:20;;;;;;;4.13;3.05;;;;;;;6.57;75.35;99055.56;6223197;23;20038;-77
2022/05/29 00:33:46;;;;;;;7.28;3.13;;;;;;;6.62;75.71;99057.25;6228695;23;20036;-76
2022/05/29 00:36:16;;;;;;;6.03;3.30;;;;;;;6.63;75.86;99056.41;6237956;23;20108;-77
2022/05/29 00:38:43;;;;;;;6.15;3.50;;;;;;;6.66;75.79;99058.09;6249512;23;20361;-77
2022/05/29 00:41:27;;;;;;;7.80;3.13;;;;;;;6.54;75.87;99020.25;6245566;23;20090;-77
2022/05/29 00:44:19;;;;;;;6.07;2.75;;;;;;;6.77;75.96;99046.00;6218090;23;20023;-78
2022/05/29 00:46:56;;;;;;;4.85;2.55;;;;;;;6.86;75.39;99047.66;6169567;23;20031;-76
2022/05/29 00:49:27;;;;;;;4.45;2.50;;;;;;;6.90;75.68;99049.38;6220143;23;20020;-76
2022/05/29 00:52:07;;;;;;;7.20;2.78;;;;;;;6.96;75.65;99047.59;6246080;23;20008;-78
2022/05/29 00:54:40;;;;;;;3.42;2.50;;;;;;;6.97;75.46;99050.19;6242391;23;20027;-76
2022/05/29 00:57:06;;;;;;;5.25;2.65;;;;;;;6.92;76.04;99033.81;6216879;23;20078;-77
2022/05/29 00:59:33;;;;;;;3.63;2.13;;;;;;;7.06;75.60;99055.28;6191187;23;20020;-76
2022/05/29 01:02:02;;;;;;;7.47;2.50;;;;;;;7.03;75.27;99041.53;6215403;23;20016;-76
2022/05/29 01:04:35;;;;;;;9.07;2.65;;;;;;;7.03;75.71;99044.09;6191811;23;20023;-77
2022/05/29 01:07:08;;;;;;;4.03;2.40;;;;;;;7.09;75.13;99055.28;6243870;23;20015;-76
2022/05/29 01:09:36;;;;;;;8.02;2.28;;;;;;;7.09;75.33;99062.19;6217460;23;20026;-77
2022/05/29 01:12:25;;;;;;;4.78;2.45;;;;;;;7.11;75.70;99063.03;6221744;23;20038;-77
2022/05/29 01:14:51;;;;;;;4.95;2.28;;;;;;;7.10;75.87;99071.66;6207019;23;20023;-78
2022/05/29 01:17:42;;;;;;;4.55;2.65;;;;;;;7.06;75.25;99064.78;6243780;23;20047;-77
2022/05/29 01:20:14;;;;;;;8.27;2.55;;;;;;;6.96;75.08;99053.63;6243716;23;20020;-76
2022/05/29 01:22:54;;;;;;;5.38;2.67;;;;;;;7.12;75.36;99076.81;6216223;23;20020;-79
2022/05/29 01:26:00;;;;;;;6.25;1.90;;;;;;;7.15;75.49;99075.09;6216470;23;20365;-76
2022/05/29 01:28:52;;;;;;;4.30;2.22;;;;;;;7.20;75.57;99067.28;6240749;22;20016;-79
2022/05/29 01:31:26;;;;;;;5.28;2.08;;;;;;;7.23;75.64;99075.03;6217452;23;20012;-78
2022/05/29 01:34:10;;;;;;;3.83;2.78;;;;;;;7.27;75.51;99084.50;6221132;23;20042;-76
2022/05/29 01:37:06;;;;;;;4.65;2.10;;;;;;;7.33;75.20;99081.84;6192313;23;20050;-78
2022/05/29 01:39:34;;;;;;;3.95;2.40;;;;;;;7.39;75.84;99079.22;6216516;23;20703;-78
2022/05/29 01:42:15;;;;;;;6.97;2.15;;;;;;;7.51;75.02;99085.16;6216454;23;20031;-76
2022/05/29 01:44:59;;;;;;;4.38;2.20;;;;;;;7.47;75.32;99065.38;6243029;23;20421;-77
2022/05/29 01:47:32;;;;;;;4.03;1.80;;;;;;;7.66;74.86;99084.19;6192078;23;20024;-75
2022/05/29 01:50:08;;;;;;;9.45;2.30;;;;;;;7.74;75.15;99095.34;6218097;23;20020;-77
2022/05/29 01:52:49;;;;;;;7.28;2.30;;;;;;;7.76;75.15;99098.78;6242484;23;20012;-76
2022/05/29 01:55:29;;;;;;;4.75;1.80;;;;;;;7.79;75.21;99103.94;6191017;23;20043;-76
2022/05/29 01:58:02;;;;;;;5.18;1.92;;;;;;;7.78;74.48;99111.72;6190664;23;20469;-77
2022/05/29 02:00:28;;;;;;;3.70;1.70;;;;;;;7.73;74.53;99119.53;6216078;23;20086;-76
2022/05/29 02:03:24;;;;;;;3.38;1.77;;;;;;;7.73;75.17;99123.84;6215976;23;20042;-76
2022/05/29 02:05:54;;;;;;;4.03;2.00;;;;;;;7.65;74.17;99111.81;6190825;23;20153;-77
2022/05/29 02:08:27;;;;;;;9.23;2.80;;;;;;;7.71;74.60;99120.44;6216014;23;20028;-76
2022/05/29 02:11:07;;;;;;;3.88;1.80;;;;;;;7.73;74.49;99131.59;6166006;23;20015;-77
2022/05/29 02:13:41;;;;;;;4.70;2.30;;;;;;;7.52;74.39;99100.72;6243481;23;20012;-77
2022/05/29 02:16:13;;;;;;;5.30;2.03;;;;;;;7.72;74.44;99137.69;6242790;23;20541;-75
2022/05/29 02:19:04;;;;;;;4.57;2.10;;;;;;;7.78;74.38;99137.63;6191395;23;20556;-75
2022/05/29 02:21:40;;;;;;;4.93;2.20;;;;;;;7.84;74.44;99147.94;6166274;23;20012;-76
2022/05/29 02:24:11;;;;;;;4.47;2.08;;;;;;;7.81;74.27;99122.06;6243038;23;20048;-75
2022/05/29 02:26:44;;;;;;;8.27;2.08;;;;;;;8.00;74.23;99143.50;6217309;23;20023;-76
2022/05/29 02:29:11;;;;;;;2.88;1.95;;;;;;;8.07;74.25;99133.91;6194158;23;20528;-77
2022/05/29 02:31:52;;;;;;;4.00;1.90;;;;;;;8.28;74.17;99138.03;6194081;23;20012;-76
2022/05/29 02:34:31;;;;;;;2.35;2.08;;;;;;;8.44;73.80;99146.50;6246886;23;20020;-76
2022/05/29 02:37:06;;;;;;;2.55;1.95;;;;;;;8.51;74.04;99140.44;6220515;23;20052;-77
2022/05/29 02:39:51;;;;;;;3.50;2.00;;;;;;;8.67;73.44;99150.63;6246560;23;20027;-77
2022/05/29 02:42:32;;;;;;;4.47;1.90;;;;;;;8.78;73.68;99155.69;6194906;23;20023;-78
2022/05/29 02:45:07;;;;;;;4.85;1.90;;;;;;;8.86;73.28;99159.06;6245845;23;20020;-76
2022/05/29 02:47:53;;;;;;;2.45;1.55;;;;;;;8.93;72.96;99147.72;6220827;23;20464;-77
2022/05/29 02:50:40;;;;;;;3.75;1.58;;;;;;;8.86;73.01;99125.31;6246989;23;20012;-76
2022/05/29 02:53:10;;;;;;;4.80;1.45;;;;;;;9.08;72.50;99151.00;6219106;23;20012;-77
2022/05/29 02:55:37;;;;;;;3.72;1.60;;;;;;;9.15;72.41;99156.06;6219303;23;20122;-77
2022/05/29 02:58:09;;;;;;;4.15;1.50;;;;;;;9.22;72.45;99174.19;6196221;23;20016;-76
2022/05/29 03:01:05;;;;;;;2.17;1.60;;;;;;;9.15;71.80;99169.06;6220554;23;20435;-76
2022/05/29 03:03:54;;;;;;;5.85;1.80;;;;;;;9.26;71.88;99171.50;6220578;23;20031;-77
2022/05/29 03:06:38;;;;;;;4.00;1.50;;;;;;;9.36;71.78;99168.81;6213654;23;20475;-78
2022/05/29 03:09:36;;;;;;;3.42;1.38;;;;;;;9.44;71.66;99169.53;6198257;23;20019;-76
2022/05/29 03:12:06;;;;;;;3.70;1.50;;;;;;;9.62;71.38;99181.41;6198249;23;20437;-76
2022/05/29 03:15:00;;;;;;;2.00;1.10;;;;;;;9.70;70.80;99184.75;6253906;23;20016;-77
2022/05/29 03:17:56;;;;;;;1.98;1.08;;;;;;;9.78;70.86;99182.88;6266230;23;20020;-76
2022/05/29 03:20:48;;;;;;;1.50;1.00;;;;;;;9.72;70.45;99184.72;6244810;23;20016;-76
2022/05/29 03:23:21;;;;;;;;;;;;;;;9.78;70.69;99189.84;6197071;23;20016;-76
2022/05/29 03:25:52;;;;;;;5.10;1.40;;;;;;;9.79;70.43;99186.34;6229092;23;19965;-78
2022/05/29 03:28:38;;;;;;;4.38;1.25;;;;;;;9.86;70.24;99192.31;6222195;23;20078;-78
2022/05/29 03:31:07;;;;;;;2.53;1.15;;;;;;;9.87;69.79;99188.81;6220130;23;20042;-77
2022/05/29 03:33:33;;;;;;;3.60;1.20;;;;;;;9.91;69.85;99196.53;6221102;23;20015;-78
2022/05/29 03:35:59;;;;;;;4.25;1.38;;;;;;;9.97;69.57;99199.94;6248407;23;20059;-77
2022/05/29 03:38:25;;;;;;;2.88;1.13;;;;;;;9.89;69.54;99203.50;6221121;23;20030;-77
2022/05/29 03:40:52;;;;;;;2.22;1.23;;;;;;;9.92;69.66;99213.84;6248404;23;20480;-78
2022/05/29 03:43:18;;;;;;;2.75;1.30;;;;;;;9.92;69.71;99213.84;6217236;23;20019;-78
2022/05/29 03:45:44;;;;;;;1.83;1.48;;;;;;;9.93;69.84;99214.72;6192822;23;20023;-76
2022/05/29 03:48:10;;;;;;;1.52;1.05;;;;;;;9.84;69.67;99205.31;6192661;23;20012;-78
2022/05/29 03:50:36;;;;;;;1.40;1.10;;;;;;;9.89;69.71;99202.66;6217305;23;20672;-77
2022/05/29 03:53:03;;;;;;;2.03;1.00;;;;;;;10.01;69.87;99212.84;6244457;23;20044;-76
2022/05/29 03:55:29;;;;;;;3.17;1.10;;;;;;;10.13;69.94;99218.75;6166984;23;20019;-76
2022/05/29 03:57:55;;;;;;;1.85;1.20;;;;;;;10.19;69.62;99227.28;6192112;23;20047;-78
2022/05/29 04:00:23;;;;;;;2.72;1.08;;;;;;;10.15;69.01;99228.22;6192705;23;20070;-80
2022/05/29 04:02:49;;;;;;;3.20;1.48;;;;;;;10.17;69.66;99231.66;6217500;23;20024;-78
2022/05/29 04:05:22;;;;;;;4.00;1.10;;;;;;;10.23;69.56;99239.38;6244954;23;20126;-77
2022/05/29 04:13:22;;;;;;;1.33;0.90;;;;;;;10.87;68.89;99219.22;6224210;23;20016;-78
2022/05/29 04:15:49;;;;;;;3.67;1.10;;;;;;;10.92;68.96;99227.78;6253094;23;20028;-77
2022/05/29 04:18:20;;;;;;;2.47;1.23;;;;;;;10.80;68.08;99219.31;6242055;23;20011;-79
2022/05/29 04:20:51;;;;;;;2.67;0.88;;;;;;;10.77;67.95;99234.97;6221074;23;20418;-79
2022/05/29 04:23:18;;;;;;;2.67;1.10;;;;;;;10.61;67.85;99224.00;6220580;23;20061;-77
2022/05/29 04:25:44;;;;;;;6.57;1.20;;;;;;;10.42;67.65;99218.28;6194527;23;20023;-77
2022/05/29 04:28:11;;;;;;;1.25;1.13;;;;;;;10.29;67.60;99222.81;6217911;23;20051;-78
2022/05/29 04:30:37;;;;;;;3.33;1.25;;;;;;;10.19;67.68;99237.69;6193597;23;20020;-78
2022/05/29 04:33:03;;;;;;;2.97;1.10;;;;;;;10.16;68.29;99250.75;6217465;23;20016;-79
2022/05/29 04:35:36;;;;;;;2.88;1.00;;;;;;;10.02;68.37;99255.31;6192166;23;20015;-79
2022/05/29 04:38:03;;;;;;;2.10;1.17;;;;;;;9.86;68.70;99258.13;6216710;23;20476;-78
2022/05/29 04:40:32;;;;;;;1.65;1.20;;;;;;;9.65;68.76;99228.13;6217045;23;20016;-77
2022/05/29 04:42:58;;;;;;;1.20;1.10;;;;;;;9.75;69.29;99260.03;6192199;23;20027;-78
2022/05/29 04:45:26;;;;;;;2.42;1.40;;;;;;;9.69;69.60;99257.50;6216762;23;20023;-78
2022/05/29 04:47:53;;;;;;;2.30;1.20;;;;;;;9.76;69.95;99269.53;6192267;23;20499;-78
2022/05/29 04:50:19;;;;;;;2.85;1.30;;;;;;;9.71;70.31;99242.75;6243700;23;20016;-80
2022/05/29 04:52:45;;;;;;;2.28;1.30;;;;;;;9.96;70.32;99271.84;6244197;23;20453;-77
2022/05/29 04:55:11;;;;;;;1.80;1.30;;;;;;;10.12;70.67;99274.22;6217010;23;20111;-78
2022/05/29 04:57:38;;;;;;;1.80;1.30;;;;;;;10.18;70.40;99250.69;6196046;23;20161;-78
2022/05/29 05:00:07;;;;;;;2.45;1.20;;;;;;;10.48;70.38;99280.56;6217486;23;20016;-80
2022/05/29 05:02:33;;;;;;;4.45;1.38;;;;;;;10.72;70.19;99273.25;6216591;23;20573;-79
2022/05/29 05:04:59;;;;;;;1.48;0.98;;;;;;;10.90;70.08;99253.00;6216583;23;20015;-80
2022/05/29 05:07:26;;;;;;;3.60;1.30;;;;;;;11.12;70.52;99238.66;6242198;23;20516;-79
2022/05/29 05:09:52;;;;;;;2.15;1.08;;;;;;;11.71;69.99;99271.28;6218348;23;20061;-80
2022/05/29 05:12:18;;;;;;;2.40;0.95;;;;;;;12.02;70.02;99264.56;6244172;23;20094;-80
2022/05/29 05:14:45;;;;;;;2.45;1.10;;;;;;;12.12;69.31;99262.59;6244262;23;20016;-80
2022/05/29 05:17:11;;;;;;;1.10;0.80;;;;;;;12.24;68.64;99277.97;6186829;23;20024;-78
2022/05/29 05:19:38;;;;;;;1.00;0.80;;;;;;;12.27;68.41;99274.41;6187535;23;20017;-78
2022/05/29 05:22:05;;;;;;;3.05;0.73;;;;;;;12.12;67.22;99275.63;6188748;23;20025;-78
2022/05/29 05:24:34;;;;;;;2.13;0.90;;;;;;;12.24;67.71;99283.19;6213447;23;20019;-80
2022/05/29 05:27:00;;;;;;;6.03;1.00;;;;;;;12.39;67.80;99273.25;6211848;23;20099;-78
2022/05/29 05:29:26;;;;;;;2.90;0.85;;;;;;;12.78;66.64;99275.75;6213833;23;20047;-76
2022/05/29 05:31:52;;;;;;;1.08;0.80;;;;;;;13.13;66.62;99288.75;6211201;23;20016;-77
2022/05/29 05:34:18;;;;;;;1.05;0.90;;;;;;;13.13;65.47;99279.16;6186535;23;20116;-78
2022/05/29 05:36:44;;;;;;;1.17;1.08;;;;;;;12.97;64.55;99276.13;6216697;23;20020;-77
2022/05/29 05:39:10;;;;;;;1.58;1.10;;;;;;;13.07;65.07;99298.47;6214234;23;20078;-77
2022/05/29 05:41:36;;;;;;;2.75;1.50;;;;;;;13.23;64.24;99298.91;6213640;23;20047;-79
2022/05/29 05:44:03;;;;;;;2.60;1.58;;;;;;;14.00;65.47;99306.28;6211417;23;20017;-77
2022/05/29 05:46:29;;;;;;;1.90;1.05;;;;;;;16.02;65.71;99281.00;6188057;23;20012;-78
2022/05/29 05:48:55;;;;;;;1.52;0.70;;;;;;;17.98;62.50;99272.56;6211884;23;20464;-76
2022/05/29 05:51:21;;;;;;;1.10;0.90;;;;;;;18.46;59.17;99280.78;6211834;23;20339;-77
2022/05/29 05:53:47;;;;;;;1.30;0.88;;;;;;;18.94;55.44;99270.47;6213996;23;20020;-78
2022/05/29 05:56:16;;;;;;;1.20;1.10;;;;;;;19.42;55.42;99260.06;6162105;23;20017;-78
2022/05/29 05:58:43;;;;;;;2.63;1.27;;;;;;;21.06;54.16;99266.63;6212881;23;20017;-78
2022/05/29 06:01:15;;;;;;;1.85;1.45;;;;;;;21.90;50.59;99271.19;6212439;23;20047;-78
2022/05/29 06:03:43;;;;;;;2.53;1.10;;;;;;;21.58;47.04;99268.78;6211866;23;20116;-79
2022/05/29 06:06:09;;;;;;;0.93;0.85;;;;;;;20.61;46.95;99281.63;6187157;23;20016;-78
2022/05/29 06:08:36;;;;;;;1.35;0.88;;;;;;;19.63;45.72;99288.84;6186807;23;20020;-78
2022/05/29 06:11:03;;;;;;;2.53;0.90;;;;;;;19.73;47.24;99295.34;6211614;23;20023;-79
2022/05/29 06:13:29;;;;;;;2.55;1.10;;;;;;;20.74;46.54;99282.59;6214815;23;20047;-79
2022/05/29 06:16:03;;;;;;;2.22;1.02;;;;;;;21.95;44.18;99269.09;6211777;23;20026;-77
2022/05/29 06:18:30;;;;;;;2.90;1.20;;;;;;;22.60;42.96;99285.25;6211237;23;20025;-78
2022/05/29 06:20:58;;;;;;;1.75;0.85;;;;;;;22.22;41.53;99303.53;6211975;23;20024;-76
2022/05/29 06:23:24;;;;;;;1.73;1.20;;;;;;;23.35;41.21;99296.97;6214039;23;20016;-78
2022/05/29 06:25:50;;;;;;;1.63;0.88;;;;;;;24.13;38.85;99279.88;6212515;23;20083;-76
2022/05/29 06:28:16;;;;;;;2.92;0.82;;;;;;;25.00;36.60;99288.53;6217137;23;20099;-78
2022/05/29 06:30:44;;;;;;;1.83;0.90;;;;;;;25.22;36.33;99290.38;6215646;23;20016;-78
2022/05/29 06:33:12;;;;;;;3.63;1.00;;;;;;;24.67;35.55;99294.47;6191504;23;20016;-75
2022/05/29 06:35:38;;;;;;;1.55;0.80;;;;;;;23.52;35.80;99306.38;6222302;23;20027;-80
2022/05/29 06:38:04;;;;;;;1.70;0.88;;;;;;;22.45;36.65;99311.78;6219200;23;20027;-80
2022/05/29 06:40:38;;;;;;;1.17;0.82;;;;;;;21.84;37.52;99311.31;6215341;23;20126;-79
2022/05/29 06:43:07;;;;;;;2.05;0.70;;;;;;;21.32;37.88;99325.00;6215451;23;20434;-82
2022/05/29 06:45:33;;;;;;;2.60;0.98;;;;;;;21.07;37.16;99329.13;6214850;23;20319;-82
2022/05/29 06:48:03;;;;;;;1.98;0.93;;;;;;;20.41;37.69;99319.78;6214820;23;20027;-81
2022/05/29 06:50:29;;;;;;;2.25;1.30;;;;;;;19.55;39.07;99329.69;6189075;23;20027;-79
2022/05/29 06:52:55;;;;;;;3.78;1.00;;;;;;;18.86;39.55;99341.19;6219728;23;20020;-80
2022/05/29 06:55:21;;;;;;;3.22;0.98;;;;;;;18.25;40.42;99346.75;6169526;23;20199;-77
2022/05/29 06:57:48;;;;;;;2.60;1.02;;;;;;;17.72;41.22;99346.53;6194120;23;20458;-79
2022/05/29 07:08:42;;;;;;;3.92;0.98;;;;;;;17.31;41.94;99365.03;6216321;23;20462;-77
2022/05/29 07:11:38;;;;;;;2.70;0.90;;;;;;;16.73;42.93;99340.28;6199433;23;20017;-79
2022/05/29 07:14:33;;;;;;;1.98;1.38;;;;;;;16.30;43.39;99306.13;6197287;23;20017;-78
2022/05/29 07:17:29;;;;;;;2.35;1.00;;;;;;;16.64;43.22;99369.56;6223165;23;20027;-80
2022/05/29 07:19:59;;;;;;;3.30;1.52;;;;;;;16.50;43.75;99378.84;6199643;23;20055;-79
2022/05/29 07:22:47;;;;;;;1.02;0.90;;;;;;;16.65;43.33;99358.13;6221096;23;20450;-78
2022/05/29 07:25:16;;;;;;;3.80;1.42;;;;;;;16.52;42.97;99308.72;6216448;23;20083;-77
2022/05/29 07:27:42;;;;;;;2.38;1.20;;;;;;;16.81;42.93;99385.47;6220820;23;20016;-81
2022/05/29 07:30:12;;;;;;;1.35;0.93;;;;;;;16.65;43.23;99340.59;6217626;23;20083;-78
2022/05/29 07:32:38;;;;;;;3.55;0.85;;;;;;;16.75;42.76;99333.19;6195846;23;20500;-80
2022/05/29 07:35:08;;;;;;;1.30;0.73;;;;;;;17.31;42.59;99370.28;6217922;23;20049;-79
2022/05/29 07:37:33;;;;;;;2.30;0.85;;;;;;;18.48;42.85;99381.66;6217757;23;20020;-78
2022/05/29 07:40:02;;;;;;;2.20;0.75;;;;;;;19.27;40.68;99370.75;6192695;23;20019;-79
2022/05/29 07:45:33;;;;;;;3.20;0.65;;;;;;;19.32;39.39;99381.03;6220521;23;20044;-81
2022/05/29 07:48:00;;;;;;;4.60;1.00;;;;;;;21.13;39.41;99357.03;6222346;23;20047;-78
2022/05/29 07:50:27;;;;;;;1.83;0.93;;;;;;;22.62;36.77;99392.03;6220414;23;20027;-78
2022/05/29 07:52:54;;;;;;;1.70;0.80;;;;;;;24.67;34.51;99381.41;6196144;23;20469;-78
2022/05/29 07:55:28;;;;;;;1.48;0.70;;;;;;;26.50;33.19;99377.94;6223921;23;20040;-79
2022/05/29 07:57:56;;;;;;;2.88;0.88;;;;;;;27.11;30.23;99356.94;6226102;23;20047;-78
2022/05/29 08:00:26;;;;;;;1.23;0.75;;;;;;;28.28;29.48;99369.97;6233912;23;20091;-78
2022/05/29 08:03:22;;;;;;;1.73;0.95;;;;;;;29.98;28.47;99374.81;6228873;23;20024;-78
2022/05/29 08:05:59;;;;;;;2.85;1.05;;;;;;;31.03;26.44;99351.97;6216569;23;20480;-79
2022/05/29 08:08:47;;;;;;;2.60;0.90;;;;;;;31.84;25.17;99331.97;6190975;23;20083;-80
2022/05/29 08:11:17;;;;;;;1.08;0.70;;;;;;;32.06;23.83;99307.31;6217386;23;20454;-77
2022/05/29 08:14:18;;;;;;;3.83;0.80;;;;;;;31.98;23.00;99340.41;6165806;23;20020;-79
2022/05/29 08:16:55;;;;;;;2.10;1.05;;;;;;;30.62;23.42;99356.03;6190518;23;20033;-76
2022/05/29 08:19:41;;;;;;;2.30;1.02;;;;;;;31.07;23.89;99324.66;6215173;23;20016;-80
2022/05/29 08:22:30;;;;;;;5.60;1.75;;;;;;;32.15;23.13;99355.59;6103405;23;20014;-79
2022/05/29 08:31:46;;;;;;;3.47;2.40;;;;;;;31.73;21.54;99396.78;6216701;23;20020;-82
2022/05/29 08:34:15;;;;;;;3.72;1.83;;;;;;;30.87;22.41;99396.50;6134240;23;20018;-79
2022/05/29 08:36:41;;;;;;;6.05;1.00;;;;;;;29.34;22.66;99342.44;6215957;23;20016;-78
2022/05/29 08:39:15;;;;;;;2.17;0.77;;;;;;;28.14;23.34;99408.63;6212547;23;20027;-76
2022/05/29 08:41:50;;;;;;;3.00;1.00;;;;;;;27.49;23.83;99395.56;6220645;23;20032;-77
2022/05/29 08:44:43;;;;;;;1.35;0.75;;;;;;;26.15;24.57;99403.81;6219428;23;20012;-79
2022/05/29 08:47:14;;;;;;;1.20;1.10;;;;;;;25.23;26.24;99351.47;6212842;23;20012;-77
2022/05/29 08:49:48;;;;;;;2.10;1.02;;;;;;;28.07;25.57;99399.47;6190172;23;20016;-79
2022/05/29 08:52:47;;;;;;;3.03;1.00;;;;;;;28.65;23.58;99403.22;6215474;23;20096;-77
2022/05/29 08:55:33;;;;;;;3.33;0.90;;;;;;;26.84;24.86;99411.66;6225100;23;20025;-79
2022/05/29 08:58:53;;;;;;;3.47;1.23;;;;;;;24.90;26.01;99424.94;6181934;23;20031;-79
2022/05/29 09:05:59;;;;;;;;;;;;;;;;;;;;;
2022/05/29 09:09:12;;;;;;;3.67;1.40;;;;;;;20.51;30.93;99437.22;6077926;23;20013;-80
2022/05/29 09:11:57;;;;;;;1.38;1.00;;;;;;;19.27;33.39;99480.66;6125575;23;20039;-77
2022/05/29 09:17:39;;;;;;;1.05;0.85;;;;;;;17.15;38.92;99386.72;6240344;22;20028;-78
2022/05/29 09:20:40;;;;;;;1.60;1.17;;;;;;;18.58;41.23;99345.19;6217769;23;20051;-80
2022/05/29 09:23:18;;;;;;;1.75;0.98;;;;;;;22.87;39.12;99447.78;6219422;23;20112;-78
2022/05/29 09:25:44;;;;;;;1.17;0.90;;;;;;;25.40;34.86;99439.84;6192793;23;20024;-80
2022/05/29 09:28:43;;;;;;;2.85;0.85;;;;;;;27.00;30.80;99417.44;6194427;23;20177;-78
2022/05/29 09:31:16;;;;;;;1.00;0.90;;;;;;;28.30;29.40;99431.34;6213156;23;20027;-77
2022/05/29 09:33:46;;;;;;;1.30;1.20;;;;;;;29.78;27.48;99427.66;6229960;23;20140;-78
2022/05/29 09:36:22;;;;;;;1.02;0.93;;;;;;;31.10;25.49;99429.13;6232816;23;20020;-80
2022/05/29 09:39:05;;;;;;;2.10;1.05;;;;;;;31.28;24.10;99392.47;6223738;23;20370;-78
2022/05/29 09:41:36;;;;;;;1.92;1.00;;;;;;;31.84;23.20;99419.88;6254447;23;20044;-80
2022/05/29 09:44:16;;;;;;;1.80;0.95;;;;;;;30.32;23.93;99426.97;6213334;23;20016;-79
2022/05/29 09:46:48;;;;;;;1.45;0.90;;;;;;;28.09;25.02;99443.78;6215141;23;20020;-79
2022/05/29 09:49:49;;;;;;;2.40;1.52;;;;;;;26.35;26.59;99437.88;6265341;23;20020;-81
2022/05/29 09:52:33;;;;;;;5.03;2.00;;;;;;;25.22;27.85;99404.81;6235210;23;20020;-82
2022/05/29 09:55:12;;;;;;;4.05;1.88;;;;;;;24.60;28.61;99450.16;6194466;23;20016;-79
2022/05/29 09:57:59;;;;;;;4.75;1.38;;;;;;;24.34;29.33;99447.59;6195525;23;20016;-77
2022/05/29 10:01:05;;;;;;;;;;;;;;;;;;;;;
2022/05/29 10:03:41;;;;;;;6.93;3.70;;;;;;;23.43;29.58;99383.06;6217319;23;20044;-80
2022/05/29 10:06:52;;;;;;;9.85;5.00;;;;;;;23.97;30.22;99474.09;6193780;23;20016;-78
2022/05/29 10:09:54;;;;;;;1.75;0.98;;;;;;;23.62;29.37;99414.47;6205343;23;20019;-80
2022/05/29 10:12:45;;;;;;;1.42;1.15;;;;;;;22.85;30.11;99435.59;6228214;23;20016;-81
2022/05/29 10:16:04;;;;;;;2.95;1.00;;;;;;;21.87;30.13;99407.28;6217001;23;20044;-81
2022/05/29 10:19:00;;;;;;;4.00;2.13;;;;;;;22.27;30.86;99357.06;6244160;23;20035;-82
2022/05/29 10:21:42;;;;;;;4.90;2.53;;;;;;;24.09;29.35;99341.34;6167259;23;20408;-78
2022/05/29 10:24:37;;;;;;;5.32;3.63;;;;;;;25.80;27.85;99458.09;6167408;23;20495;-81
2022/05/29 10:27:34;;;;;;;4.93;3.53;;;;;;;24.91;28.31;99365.44;6246002;23;20111;-82
2022/05/29 10:30:11;;;;;;;2.67;1.15;;;;;;;24.22;28.96;99435.16;6204943;23;20016;-80
2022/05/29 10:36:31;;;;;;;1.50;1.38;;;;;;;22.20;30.91;99468.84;6126262;23;20017;-80
2022/05/29 10:39:37;;;;;;;5.03;1.50;;;;;;;20.58;32.40;99420.06;6193742;23;20015;-80
2022/05/29 10:42:04;;;;;;;3.47;1.08;;;;;;;20.09;33.34;99442.13;6098242;23;20122;-80
2022/05/29 10:44:46;;;;;;;2.08;1.00;;;;;;;19.37;34.37;99412.44;6244955;23;20101;-82
2022/05/29 10:47:17;;;;;;;4.43;0.85;;;;;;;19.43;35.29;99491.28;6217836;23;20027;-82
2022/05/29 10:50:38;;;;;;;6.82;5.28;;;;;;;19.25;35.29;99470.19;6218949;23;20069;-80
2022/05/29 10:53:38;;;;;;;2.17;1.58;;;;;;;19.06;35.26;99480.78;6205893;23;20020;-83
2022/05/29 10:57:00;;;;;;;3.28;0.80;;;;;;;18.47;35.11;99474.78;6171748;23;20105;-81
2022/05/29 10:59:45;;;;;;;1.30;0.90;;;;;;;18.47;35.51;99509.03;6246412;23;20027;-81
2022/05/29 11:05:37;;;;;;;2.63;1.20;;;;;;;18.34;36.28;99508.72;6218439;23;20020;-81
2022/05/29 11:08:16;;;;;;;3.47;1.00;;;;;;;18.48;36.36;99505.47;6247202;23;20357;-83
2022/05/29 11:11:44;;;;;;;4.90;1.55;;;;;;;18.12;36.28;99482.53;6195497;23;20105;-80
2022/05/29 11:15:05;;;;;;;3.40;0.95;;;;;;;17.96;35.89;99512.16;6178911;23;20020;-81
2022/05/29 11:17:52;;;;;;;1.33;0.93;;;;;;;17.23;35.63;99435.50;6221573;23;20465;-80
2022/05/29 11:20:55;;;;;;;1.65;0.85;;;;;;;17.60;35.90;99513.69;6220540;23;20039;-80
2022/05/29 11:23:39;;;;;;;3.15;1.27;;;;;;;17.75;35.78;99512.19;6219579;23;20034;-83
2022/05/29 11:26:42;;;;;;;1.58;0.90;;;;;;;17.88;35.80;99520.38;6218704;23;20016;-82
2022/05/29 11:29:18;;;;;;;3.55;1.02;;;;;;;17.88;35.64;99523.00;6246969;23;20016;-82
2022/05/29 11:32:13;;;;;;;3.03;0.98;;;;;;;17.40;35.67;99450.56;6247949;23;20026;-84
2022/05/29 11:35:05;;;;;;;3.65;1.13;;;;;;;17.75;35.57;99527.97;6222411;23;20023;-82
2022/05/29 11:37:48;;;;;;;1.75;1.10;;;;;;;16.93;35.82;99420.91;6228396;23;20502;-82
2022/05/29 11:40:31;;;;;;;6.50;1.05;;;;;;;17.65;36.00;99534.53;6226960;23;20358;-82
2022/05/29 11:43:06;;;;;;;1.90;0.82;;;;;;;17.70;36.09;99547.47;6234341;23;20038;-82
2022/05/29 11:52:52;;;;;;;6.95;1.60;;;;;;;17.04;37.20;99557.16;6179930;23;20015;-80
2022/05/29 11:55:32;;;;;;;6.30;1.58;;;;;;;16.09;37.51;99420.69;6246098;23;20492;-80
2022/05/29 11:58:07;;;;;;;4.38;1.30;;;;;;;16.91;37.33;99567.28;6195353;23;20023;-80
2022/05/29 12:01:01;;;;;;;4.18;1.50;;;;;;;16.79;37.44;99558.09;6245455;23;20048;-79
2022/05/29 12:08:27;;;;;;;6.72;1.55;;;;;;;17.71;37.04;99555.31;6213353;23;20016;-81
2022/05/29 12:11:58;;;;;;;5.72;1.63;;;;;;;18.35;36.58;99549.94;6234163;23;20269;-78
2022/05/29 12:15:11;;;;;;;3.22;1.60;;;;;;;17.87;36.25;99436.22;6202153;23;20022;-78
2022/05/29 12:18:01;;;;;;;7.22;2.45;;;;;;;17.63;35.97;99430.28;6200643;23;20028;-82
2022/05/29 12:21:24;;;;;;;2.65;1.10;;;;;;;17.43;36.48;99437.28;6227755;23;20076;-78
2022/05/29 12:24:39;;;;;;;2.38;0.90;;;;;;;17.88;36.15;99551.09;6109851;23;20025;-79
2022/05/29 12:36:19;;;;;;;2.25;0.70;;;;;;;17.08;36.05;99568.41;6181164;23;20446;-79
2022/05/29 12:39:07;;;;;;;1.00;0.70;;;;;;;16.90;36.16;99565.56;6214705;23;20432;-82
2022/05/29 12:41:51;;;;;;;2.30;1.13;;;;;;;16.84;36.42;99561.41;6167849;23;20366;-80
2022/05/29 12:44:52;;;;;;;2.35;1.33;;;;;;;16.82;36.63;99563.22;6219968;23;20040;-84
2022/05/29 12:48:02;;;;;;;3.05;1.08;;;;;;;16.77;36.83;99575.69;6221013;23;20024;-84
2022/05/29 12:51:00;;;;;;;3.00;1.20;;;;;;;16.70;37.29;99584.69;6190596;23;20112;-81
2022/05/29 12:53:57;;;;;;;2.40;1.13;;;;;;;16.45;37.52;99572.47;6194841;23;20020;-82
2022/05/29 12:57:16;;;;;;;4.40;1.00;;;;;;;16.46;37.42;99583.84;6164759;23;20400;-84
2022/05/29 13:00:02;;;;;;;3.72;0.80;;;;;;;16.41;37.37;99586.66;6217145;23;20406;-83
2022/05/29 13:03:01;;;;;;;2.17;1.35;;;;;;;16.32;37.26;99589.59;6172998;23;20070;-80
2022/05/29 13:05:51;;;;;;;2.83;0.90;;;;;;;16.30;37.59;99596.66;6215712;23;20020;-81
2022/05/29 13:14:35;;;;;;;2.00;1.05;;;;;;;16.27;37.68;99595.88;6194875;23;20069;-81
2022/05/29 13:17:31;;;;;;;3.45;1.50;;;;;;;15.98;37.74;99543.56;6090759;23;20142;-80
2022/05/29 13:19:59;;;;;;;1.85;0.80;;;;;;;16.22;37.79;99583.81;6212987;23;20016;-79
2022/05/29 13:23:16;;;;;;;;;;;;;;;;;;;;;
2022/05/29 13:26:20;;;;;;;2.73;0.80;;;;;;;15.34;38.29;99436.41;6179665;23;20016;-79
2022/05/29 13:28:59;;;;;;;3.22;1.02;;;;;;;16.27;38.28;99587.97;6211464;23;20020;-79
2022/05/29 13:31:31;;;;;;;2.08;1.17;;;;;;;15.86;38.29;99511.59;6210830;23;20508;-82
2022/05/29 13:34:22;;;;;;;4.97;1.20;;;;;;;16.49;38.48;99581.94;6185985;23;20043;-80
2022/05/29 13:37:27;;;;;;;12.10;5.78;;;;;;;16.62;38.47;99589.41;6211061;23;20021;-80